Time;durP1;ratioP1;P1;durP2;ratioP2;P2;SDS_P1;SDS_P2;PMS_P1;PMS_P2;Temp;Humidity;BMP_temperature;BMP_pressure;BME280_temperature;BME280_humidity;BME280_pressure;Samples;Min_cycle;Max_cycle;Signal;HPM_P1;HPM_P2
2022/10/28 00:00:10;572058.00;1.91;986.00;0.00;0.00;0.62;;;;;18.20;2.50;;;;;;2280445;61;1017;-89
2022/10/28 00:02:39;142588.00;0.48;247.03;0.00;0.00;0.62;;;;;17.90;4.60;;;;;;2280394;61;1004;-87
2022/10/28 00:05:06;293331.00;0.98;506.46;0.00;0.00;0.62;;;;;17.50;3.60;;;;;;2280307;61;1915;-87
2022/10/28 00:07:33;383164.00;1.28;660.86;0.00;0.00;0.62;;;;;16.90;5.00;;;;;;2280356;61;1008;-89
2022/10/28 00:10:00;260175.00;0.87;449.45;0.00;0.00;0.62;;;;;16.60;6.70;;;;;;2280202;61;995;-87
2022/10/28 00:12:28;377048.00;1.26;650.35;0.00;0.00;0.62;;;;;16.70;8.00;;;;;;2280404;61;946;-87
2022/10/28 00:14:55;268362.00;0.89;463.53;0.00;0.00;0.62;;;;;16.70;7.00;;;;;;2280326;61;2176;-86
2022/10/28 00:17:22;269297.00;0.90;465.14;27557.00;0.09;48.35;;;;;17.00;7.30;;;;;;2280345;61;1093;-86
2022/10/28 00:19:49;323755.00;1.08;558.75;21055.00;0.07;37.10;;;;;17.10;5.50;;;;;;2280290;61;1047;-87
2022/10/28 00:22:16;115430.00;0.38;200.20;0.00;0.00;0.62;;;;;17.20;4.90;;;;;;2280269;61;941;-87
2022/10/28 00:24:43;491298.00;1.64;846.84;95224.00;0.32;165.33;;;;;17.10;4.30;;;;;;2280264;61;2014;-86
2022/10/28 00:27:10;537116.00;1.79;925.75;134410.00;0.45;232.93;;;;;17.10;5.60;;;;;;2280300;61;1442;-87
2022/10/28 00:29:38;631599.00;2.11;1088.81;63533.00;0.21;110.58;;;;;16.90;6.00;;;;;;2280215;61;1529;-86
2022/10/28 00:32:05;365437.00;1.22;630.39;0.00;0.00;0.62;;;;;17.10;5.60;;;;;;2280320;61;1446;-86
2022/10/28 00:34:32;232305.00;0.77;401.51;0.00;0.00;0.62;;;;;17.20;4.10;;;;;;2280211;61;1539;-87
2022/10/28 00:36:59;361668.00;1.21;623.92;67712.00;0.23;117.81;;;;;17.40;4.30;;;;;;2280292;61;1293;-86
2022/10/28 00:39:26;574060.00;1.91;989.45;81940.00;0.27;142.39;;;;;17.60;6.00;;;;;;2280306;61;1089;-87
2022/10/28 00:41:57;602273.00;2.01;1038.14;62261.00;0.21;108.39;;;;;17.20;4.10;;;;;;2280358;61;1030;-86
2022/10/28 00:44:54;368471.00;1.23;635.61;21322.00;0.07;37.56;;;;;16.80;4.90;;;;;;2280258;61;1981;-86
2022/10/28 00:47:31;104510.00;0.35;181.36;0.00;0.00;0.62;;;;;17.10;5.90;;;;;;2280296;61;1096;-86
2022/10/28 00:50:07;151052.00;0.50;261.62;0.00;0.00;0.62;;;;;17.30;6.80;;;;;;2280214;61;1053;-89
2022/10/28 00:52:35;261539.00;0.87;451.79;0.00;0.00;0.62;;;;;17.30;6.50;;;;;;2280206;61;1039;-87
2022/10/28 00:55:03;331938.00;1.11;572.82;84588.00;0.28;146.96;;;;;17.50;7.00;;;;;;2280204;61;1311;-86
2022/10/28 00:57:34;473531.00;1.58;816.27;75101.00;0.25;130.57;;;;;17.50;4.30;;;;;;2280259;61;1063;-86
2022/10/28 01:00:05;469503.00;1.57;809.33;67869.00;0.23;118.08;;;;;17.40;3.80;;;;;;2280224;61;1819;-87
2022/10/28 01:02:42;234489.00;0.78;405.27;72935.00;0.24;126.83;;;;;17.30;4.20;;;;;;2280127;61;1132;-87
2022/10/28 01:05:10;815346.00;2.72;1407.90;195877.00;0.65;338.83;;;;;17.00;4.00;;;;;;2288025;55;3693;-87
2022/10/28 01:07:37;615757.00;2.05;1061.43;113957.00;0.38;197.66;;;;;17.10;4.10;;;;;;2284288;60;1042;-88
2022/10/28 01:10:05;261688.00;0.87;452.05;54166.00;0.18;94.39;;;;;17.20;5.60;;;;;;2284269;60;2339;-87
2022/10/28 01:12:41;391738.00;1.31;675.60;56926.00;0.19;99.16;;;;;17.20;6.70;;;;;;2284271;60;1561;-87
2022/10/28 01:15:18;429426.00;1.43;740.40;69305.00;0.23;120.56;;;;;17.40;5.00;;;;;;2284208;60;1377;-86
2022/10/28 01:17:58;272717.00;0.91;471.02;71857.00;0.24;124.97;;;;;17.50;4.40;;;;;;2284282;60;1006;-87
2022/10/28 01:20:57;610707.00;2.04;1052.71;157425.00;0.52;272.60;;;;;17.70;7.60;;;;;;2284134;60;1581;-87
2022/10/28 01:23:33;436195.00;1.45;752.04;8805.00;0.03;15.88;;;;;17.60;3.40;;;;;;2284892;60;1277;-86
2022/10/28 01:26:30;477576.00;1.59;823.23;67730.00;0.23;117.84;;;;;17.40;3.40;;;;;;2284941;60;1963;-88
2022/10/28 01:29:30;229945.00;0.77;397.45;0.00;0.00;0.62;;;;;17.10;3.60;;;;;;2284875;60;1681;-87
2022/10/28 01:32:04;238185.00;0.79;411.63;0.00;0.00;0.62;;;;;17.10;5.40;;;;;;2284923;60;1090;-88
2022/10/28 01:34:37;189283.00;0.63;327.47;78042.00;0.26;135.65;;;;;17.20;5.70;;;;;;2284924;60;1082;-87
2022/10/28 01:37:12;276950.00;0.92;478.29;69498.00;0.23;120.89;;;;;17.50;8.50;;;;;;2284865;60;1339;-88
2022/10/28 01:39:50;362050.00;1.21;624.57;66580.00;0.22;115.85;;;;;17.80;6.60;;;;;;2285009;60;1043;-88
2022/10/28 01:42:27;258313.00;0.86;446.25;0.00;0.00;0.62;;;;;17.80;4.30;;;;;;2284933;60;1050;-85
2022/10/28 01:45:03;185435.00;0.62;320.85;0.00;0.00;0.62;;;;;17.60;4.80;;;;;;2284733;60;1913;-88
2022/10/28 01:47:38;125703064.00;419.01;80472712.00;125358272.00;417.86;79811696.00;;;;;17.70;5.60;;;;;;2284954;60;1081;-88
2022/10/28 01:50:10;650883.00;2.17;1122.16;82197.00;0.27;142.83;;;;;17.60;4.70;;;;;;2284932;60;983;-87
2022/10/28 01:52:41;537529.00;1.79;926.46;110067.00;0.37;190.95;;;;;17.50;4.30;;;;;;2284783;60;1033;-88
2022/10/28 01:55:15;340008.00;1.13;586.69;51499.00;0.17;89.78;;;;;17.40;4.20;;;;;;2284805;60;1457;-88
2022/10/28 01:57:43;264203.00;0.88;456.38;40004.00;0.13;69.90;;;;;17.30;3.60;;;;;;2284732;60;1027;-85
2022/10/28 02:00:11;390580.00;1.30;673.61;92321.00;0.31;160.32;;;;;17.10;4.00;;;;;;2284804;60;1326;-86
2022/10/28 02:02:41;239491.00;0.80;413.88;0.00;0.00;0.62;;;;;17.10;5.10;;;;;;2284788;60;1093;-88
2022/10/28 02:05:40;28036.00;0.09;49.18;0.00;0.00;0.62;;;;;17.30;4.20;;;;;;2284699;60;2001;-88
2022/10/28 02:08:41;149147104.00;497.16;134487152.00;148910400.00;496.37;133847176.00;;;;;17.40;7.90;;;;;;2284790;60;1155;-88
2022/10/28 02:11:34;609618.00;2.03;1050.83;136752.00;0.46;236.97;;;;;17.70;6.30;;;;;;2283594;60;1178;-87
2022/10/28 02:14:14;350636.00;1.17;604.95;0.00;0.00;0.62;;;;;17.40;4.20;;;;;;2284192;60;1060;-87
2022/10/28 02:16:49;263531.00;0.88;455.22;6620.00;0.02;12.09;;;;;17.30;4.60;;;;;;2284779;60;1461;-86
2022/10/28 02:19:30;253185.00;0.84;437.43;0.00;0.00;0.62;;;;;17.20;4.20;;;;;;2284849;60;1038;-88
2022/10/28 02:22:13;271779.00;0.91;469.40;21716.00;0.07;38.24;;;;;17.50;7.50;;;;;;2284864;60;1113;-88
2022/10/28 02:24:50;247291.00;0.82;427.29;0.00;0.00;0.62;;;;;17.80;6.10;;;;;;2284748;60;1994;-87
2022/10/28 02:27:26;92389.00;0.31;160.43;0.00;0.00;0.62;;;;;17.80;5.10;;;;;;2284756;60;1442;-87
2022/10/28 02:30:00;161024.00;0.54;278.80;0.00;0.00;0.62;;;;;17.60;4.90;;;;;;2284769;60;1027;-87
2022/10/28 02:32:32;318522.00;1.06;549.76;0.00;0.00;0.62;;;;;17.80;6.70;;;;;;2284493;60;1054;-88
2022/10/28 02:35:03;189975.00;0.63;328.67;0.00;0.00;0.62;;;;;17.50;4.30;;;;;;2284729;60;1362;-87
2022/10/28 02:37:35;69790.00;0.23;121.40;0.00;0.00;0.62;;;;;17.30;4.20;;;;;;2284720;60;1151;-86
2022/10/28 02:40:07;272969.00;0.91;471.45;15371.00;0.05;27.25;;;;;17.30;7.90;;;;;;2284754;60;1112;-86
2022/10/28 02:42:37;107776.00;0.36;186.99;0.00;0.00;0.62;;;;;17.30;7.10;;;;;;2284766;60;1105;-87
2022/10/28 02:45:11;117202.00;0.39;203.26;0.00;0.00;0.62;;;;;17.30;5.60;;;;;;2284605;60;1929;-88
2022/10/28 02:47:43;171621.00;0.57;297.06;0.00;0.00;0.62;;;;;17.40;6.70;;;;;;2284698;60;1116;-88
2022/10/28 02:50:17;69126.00;0.23;120.25;0.00;0.00;0.62;;;;;17.50;7.20;;;;;;2284614;60;1020;-89
2022/10/28 02:52:51;227753.00;0.76;393.68;0.00;0.00;0.62;;;;;17.70;6.10;;;;;;2284663;60;1443;-88
2022/10/28 02:55:22;226927.00;0.76;392.26;60686.00;0.20;105.66;;;;;17.70;5.80;;;;;;2284575;60;1383;-87
2022/10/28 02:57:50;189799.00;0.63;328.36;0.00;0.00;0.62;;;;;17.70;4.20;;;;;;2284654;60;1109;-88
2022/10/28 03:00:21;81863.00;0.27;142.26;0.00;0.00;0.62;;;;;17.60;5.30;;;;;;2284658;60;1629;-88
2022/10/28 03:02:48;226829.00;0.76;392.09;0.00;0.00;0.62;;;;;17.30;5.40;;;;;;2284648;60;1128;-87
2022/10/28 03:05:17;196561.00;0.66;340.00;3678.00;0.01;6.99;;;;;17.30;6.50;;;;;;2284517;60;1989;-89
2022/10/28 03:07:44;86543.00;0.29;150.34;0.00;0.00;0.62;;;;;17.10;6.00;;;;;;2284705;60;1012;-88
2022/10/28 03:10:11;323159.00;1.08;557.73;16335.00;0.05;28.92;;;;;17.00;5.50;;;;;;2284654;60;1082;-87
2022/10/28 03:12:38;143482.00;0.48;248.57;0.00;0.00;0.62;;;;;17.00;6.90;;;;;;2284619;60;991;-88
2022/10/28 03:15:06;470342.00;1.57;810.78;0.00;0.00;0.62;;;;;16.90;7.20;;;;;;2284627;60;1338;-86
2022/10/28 03:17:32;121866.00;0.41;211.30;0.00;0.00;0.62;;;;;16.70;5.70;;;;;;2284640;60;980;-88
2022/10/28 03:19:59;143258.00;0.48;248.19;0.00;0.00;0.62;;;;;16.80;6.80;;;;;;2284613;60;1095;-87
2022/10/28 03:22:28;225164.00;0.75;389.23;0.00;0.00;0.62;;;;;16.80;5.80;;;;;;2284504;60;1006;-88
2022/10/28 03:24:55;278818.00;0.93;481.51;0.00;0.00;0.62;;;;;16.80;8.00;;;;;;2284487;60;2003;-86
2022/10/28 03:27:21;562669.00;1.88;969.80;84297.00;0.28;146.46;;;;;17.00;8.30;;;;;;2284623;60;991;-88
2022/10/28 03:29:48;228800.00;0.76;395.48;10084.00;0.03;18.09;;;;;16.80;3.80;;;;;;2284594;60;1442;-88
2022/10/28 03:32:15;316454.00;1.05;546.20;0.00;0.00;0.62;;;;;16.80;5.90;;;;;;2284547;60;1453;-89
2022/10/28 03:34:42;540807.00;1.80;932.11;137814.00;0.46;238.80;;;;;16.50;5.40;;;;;;2284536;60;1445;-88
2022/10/28 03:37:09;381603.00;1.27;658.18;0.00;0.00;0.62;;;;;16.50;6.10;;;;;;2284498;60;1615;-87
2022/10/28 03:39:37;54196.00;0.18;94.44;0.00;0.00;0.62;;;;;16.60;8.20;;;;;;2284561;60;1585;-89
2022/10/28 03:42:04;376479.00;1.25;649.37;5221.00;0.02;9.67;;;;;16.80;5.50;;;;;;2284577;60;1117;-88
2022/10/28 03:44:31;50511.00;0.17;88.07;0.00;0.00;0.62;;;;;16.80;7.60;;;;;;2284514;60;1911;-89
2022/10/28 03:46:58;460837.00;1.54;794.42;74326.00;0.25;129.24;;;;;16.90;5.50;;;;;;2284505;60;1306;-89
2022/10/28 03:49:25;361958.00;1.21;624.41;29293.00;0.10;51.36;;;;;17.10;6.60;;;;;;2284385;60;969;-89
2022/10/28 03:51:52;441225.00;1.47;760.69;50741.00;0.17;88.47;;;;;17.10;5.80;;;;;;2284477;60;1024;-88
2022/10/28 03:54:19;156751.00;0.52;271.44;0.00;0.00;0.62;;;;;17.30;6.70;;;;;;2284496;60;1085;-88
2022/10/28 03:56:47;267417.00;0.89;461.90;14047.00;0.05;24.96;;;;;17.60;7.80;;;;;;2284460;60;1384;-90
2022/10/28 03:59:14;598540.00;2.00;1031.70;73752.00;0.25;128.24;;;;;17.50;4.30;;;;;;2284488;60;1559;-87
2022/10/28 04:01:41;451319.00;1.50;778.05;49748.00;0.17;86.75;;;;;17.30;4.20;;;;;;2284525;60;1099;-89
2022/10/28 04:04:08;171192.00;0.57;296.32;0.00;0.00;0.62;;;;;17.30;6.20;;;;;;2284422;60;991;-87
2022/10/28 04:06:34;144178.00;0.48;249.77;0.00;0.00;0.62;;;;;17.30;6.00;;;;;;2284425;60;2068;-88
2022/10/28 04:09:01;210123.00;0.70;363.35;13172.00;0.04;23.44;;;;;17.30;6.70;;;;;;2284414;60;1618;-87
2022/10/28 04:11:28;275763.00;0.92;476.25;0.00;0.00;0.62;;;;;17.40;5.00;;;;;;2284466;60;1084;-88
2022/10/28 04:13:56;187150.00;0.62;323.80;22071.00;0.07;38.86;;;;;17.50;4.60;;;;;;2284396;60;1429;-90
2022/10/28 04:16:23;16071.00;0.05;28.47;0.00;0.00;0.62;;;;;17.60;7.90;;;;;;2284356;60;1279;-86
2022/10/28 04:18:50;497885.00;1.66;858.18;74311.00;0.25;129.21;;;;;17.70;6.20;;;;;;2284399;60;1110;-90
2022/10/28 04:21:20;272602.00;0.91;470.82;44437.00;0.15;77.56;;;;;17.70;5.80;;;;;;2284451;60;992;-89
2022/10/28 04:23:47;180822.00;0.60;312.91;0.00;0.00;0.62;;;;;17.50;4.50;;;;;;2284369;60;1033;-88
2022/10/28 04:26:14;295650.00;0.99;510.44;1876.00;0.01;3.87;;;;;17.60;6.20;;;;;;2284247;60;2011;-87
2022/10/28 04:28:41;282253.00;0.94;487.41;50839.00;0.17;88.64;;;;;17.60;5.90;;;;;;2284342;60;1025;-87
2022/10/28 04:31:11;364140.00;1.21;628.16;4192.00;0.01;7.89;;;;;17.60;4.40;;;;;;2284318;60;1508;-86
2022/10/28 04:33:38;27770.00;0.09;48.72;0.00;0.00;0.62;;;;;17.40;4.30;;;;;;2284390;60;1105;-87
2022/10/28 04:36:05;144350.00;0.48;250.07;0.00;0.00;0.62;;;;;17.50;4.30;;;;;;2284253;60;1683;-87
2022/10/28 04:38:32;235829.00;0.79;407.58;0.00;0.00;0.62;;;;;17.60;5.20;;;;;;2284313;60;1748;-88
2022/10/28 04:40:59;773158.00;2.58;1334.35;24724.00;0.08;43.45;;;;;17.70;4.50;;;;;;2326320;55;3780;-89
2022/10/28 04:43:26;222818.00;0.74;385.19;41102.00;0.14;71.79;;;;;17.90;6.20;;;;;;2280244;61;1019;-90
2022/10/28 04:45:53;244803.00;0.82;423.01;34417.00;0.11;60.23;;;;;17.90;4.60;;;;;;2280118;61;2011;-90
2022/10/28 04:48:21;91078.00;0.30;158.17;11206.00;0.04;20.04;;;;;17.80;5.70;;;;;;2280198;61;1439;-87
2022/10/28 04:50:49;336807.00;1.12;581.19;0.00;0.00;0.62;;;;;17.70;4.40;;;;;;2280285;61;963;-88
2022/10/28 04:53:16;98396.00;0.33;170.80;0.00;0.00;0.62;;;;;17.40;4.20;;;;;;2280225;61;1051;-89
2022/10/28 04:55:44;382359.00;1.27;659.48;18093.00;0.06;31.97;;;;;17.50;4.30;;;;;;2280561;61;1376;-90
2022/10/28 04:58:11;194989.00;0.65;337.30;47349.00;0.16;82.60;;;;;17.50;4.30;;;;;;2280919;61;1520;-90
2022/10/28 05:00:38;241135.00;0.80;416.70;12519.00;0.04;22.31;;;;;17.40;4.20;;;;;;2280981;61;974;-87
2022/10/28 05:03:04;126589.00;0.42;219.45;0.00;0.00;0.62;;;;;17.50;4.30;;;;;;2280932;61;1114;-88
2022/10/28 05:05:33;9356.00;0.03;16.83;0.00;0.00;0.62;;;;;17.60;4.40;;;;;;2280845;61;1986;-87
2022/10/28 05:08:00;0.00;0.00;0.62;0.00;0.00;0.62;;;;;17.60;4.30;;;;;;2280989;61;1132;-86
2022/10/28 05:10:27;430365.00;1.43;742.01;65885.00;0.22;114.65;;;;;17.40;4.20;;;;;;2280887;61;1115;-87
2022/10/28 05:12:54;289735.00;0.97;500.27;67785.00;0.23;117.93;;;;;17.00;4.20;;;;;;2280914;61;1069;-88
2022/10/28 05:15:21;53286.00;0.18;92.87;0.00;0.00;0.62;;;;;17.30;6.00;;;;;;2280904;61;1551;-89
2022/10/28 05:17:48;164670.00;0.55;285.09;0.00;0.00;0.62;;;;;17.30;7.00;;;;;;2280930;61;991;-88
2022/10/28 05:20:17;256489.00;0.85;443.11;118860.00;0.40;206.12;;;;;17.20;5.40;;;;;;2280873;61;1977;-87
2022/10/28 05:22:51;322099.00;1.07;555.91;23455.00;0.08;41.25;;;;;17.40;6.60;;;;;;2280668;61;1351;-87
2022/10/28 05:25:18;267506.00;0.89;462.06;67024.00;0.22;116.62;;;;;17.40;6.00;;;;;;2280807;61;2030;-86
2022/10/28 05:27:45;727297.00;2.42;1254.61;107240.00;0.36;186.07;;;;;17.50;6.40;;;;;;2280769;61;1564;-87
2022/10/28 05:30:13;12598.00;0.04;22.45;0.00;0.00;0.62;;;;;17.80;6.20;;;;;;2280808;61;1000;-86
2022/10/28 05:32:40;171050.00;0.57;296.08;0.00;0.00;0.62;;;;;17.70;4.50;;;;;;2280779;61;1035;-85
2022/10/28 05:35:07;69855.00;0.23;121.51;0.00;0.00;0.62;;;;;17.70;5.40;;;;;;2280748;61;1367;-87
2022/10/28 05:37:34;273682.00;0.91;472.67;23272.00;0.08;40.94;;;;;17.30;5.30;;;;;;2280815;61;923;-88
2022/10/28 05:40:03;401180.00;1.34;691.83;114061.00;0.38;197.84;;;;;17.40;6.20;;;;;;2280718;61;1105;-87
2022/10/28 05:42:30;189246.00;0.63;327.41;0.00;0.00;0.62;;;;;17.60;6.30;;;;;;2280733;61;1518;-86
2022/10/28 05:44:57;155216.00;0.52;268.80;0.00;0.00;0.62;;;;;17.70;4.90;;;;;;2280797;61;1368;-89
2022/10/28 05:47:24;0.00;0.00;0.62;0.00;0.00;0.62;;;;;17.70;5.50;;;;;;2280813;61;2006;-87
2022/10/28 05:49:51;195564.00;0.65;338.29;0.00;0.00;0.62;;;;;17.70;5.60;;;;;;2280806;61;1443;-88
2022/10/28 05:52:17;139102.00;0.46;241.02;0.00;0.00;0.62;;;;;17.60;6.90;;;;;;2280750;61;1629;-88
2022/10/28 05:54:44;220845.00;0.74;381.80;42496.00;0.14;74.21;;;;;17.60;5.60;;;;;;2280818;61;918;-88
2022/10/28 05:57:13;285086.00;0.95;492.28;0.00;0.00;0.62;;;;;17.70;5.80;;;;;;2280690;61;1700;-88
2022/10/28 05:59:40;240861.00;0.80;416.23;64520.00;0.22;112.29;;;;;17.60;5.30;;;;;;2280602;61;1095;-88
2022/10/28 06:02:10;132089.00;0.44;228.93;0.00;0.00;0.62;;;;;17.50;6.90;;;;;;2280688;61;1334;-87
2022/10/28 06:04:36;100668.00;0.34;174.72;0.00;0.00;0.62;;;;;17.70;6.70;;;;;;2280730;61;1039;-89
2022/10/28 06:07:03;213512.00;0.71;369.18;0.00;0.00;0.62;;;;;17.60;4.40;;;;;;2280742;61;1915;-88
2022/10/28 06:09:30;471314.00;1.57;812.45;37716.00;0.13;65.94;;;;;17.50;5.60;;;;;;2280740;61;1000;-88
2022/10/28 06:11:57;400566.00;1.34;690.78;53023.00;0.18;92.41;;;;;17.70;6.40;;;;;;2280656;61;1114;-87
2022/10/28 06:14:25;185109.00;0.62;320.29;0.00;0.00;0.62;;;;;17.70;5.90;;;;;;2280757;61;922;-88
2022/10/28 06:16:52;283991.00;0.95;490.40;0.00;0.00;0.62;;;;;17.60;6.10;;;;;;2280690;61;1367;-88
2022/10/28 06:19:19;207058.00;0.69;358.07;0.00;0.00;0.62;;;;;17.60;6.10;;;;;;2280693;61;821;-88
2022/10/28 06:21:46;252555.00;0.84;436.35;0.00;0.00;0.62;;;;;17.50;5.80;;;;;;2280652;61;2061;-89
2022/10/28 06:24:13;294201.00;0.98;507.95;0.00;0.00;0.62;;;;;17.40;7.70;;;;;;2280600;61;1585;-89
2022/10/28 06:26:40;330814.00;1.10;570.89;150186.00;0.50;260.13;;;;;17.50;6.30;;;;;;2280645;61;1915;-89
2022/10/28 06:29:08;122211.00;0.41;211.90;0.00;0.00;0.62;;;;;17.60;7.20;;;;;;2280648;61;1061;-88
2022/10/28 06:31:39;121549.00;0.41;210.75;0.00;0.00;0.62;;;;;17.60;6.70;;;;;;2280688;61;1040;-89
2022/10/28 06:34:06;96049.00;0.32;166.75;0.00;0.00;0.62;;;;;17.70;7.70;;;;;;2280637;61;1643;-88
2022/10/28 06:36:33;176882.00;0.59;306.12;11422.00;0.04;20.41;;;;;17.90;7.00;;;;;;2280607;61;1489;-89
2022/10/28 06:39:00;153224.00;0.51;265.36;0.00;0.00;0.62;;;;;18.00;6.20;;;;;;2280518;61;1445;-88
2022/10/28 06:41:27;217826.00;0.73;376.60;0.00;0.00;0.62;;;;;18.00;5.20;;;;;;2280577;61;2187;-87
2022/10/28 06:43:54;61779.00;0.21;107.55;0.00;0.00;0.62;;;;;18.10;7.00;;;;;;2280636;61;1164;-87
2022/10/28 06:46:20;366103.00;1.22;631.54;0.00;0.00;0.62;;;;;18.00;4.70;;;;;;2280410;61;1922;-89
2022/10/28 06:48:49;204052.00;0.68;352.90;0.00;0.00;0.62;;;;;17.90;5.20;;;;;;2280689;61;1064;-89
2022/10/28 06:51:16;91831.00;0.31;159.47;0.00;0.00;0.62;;;;;17.70;5.80;;;;;;2280626;61;1020;-89
2022/10/28 06:53:43;87223.00;0.29;151.51;0.00;0.00;0.62;;;;;17.90;6.50;;;;;;2280517;61;2341;-86
2022/10/28 06:56:10;388992.00;1.30;670.88;28956.00;0.10;50.78;;;;;17.90;4.80;;;;;;2280583;61;1395;-88
2022/10/28 06:58:37;286921.00;0.96;495.44;0.00;0.00;0.62;;;;;18.00;4.80;;;;;;2280520;61;1712;-87
2022/10/28 07:01:05;322350.00;1.07;556.34;0.00;0.00;0.62;;;;;17.80;5.50;;;;;;2280225;61;1105;-88
2022/10/28 07:03:32;563510.00;1.88;971.25;74105.00;0.25;128.85;;;;;18.00;6.50;;;;;;2280579;61;1678;-88
2022/10/28 07:06:01;33406.00;0.11;58.48;0.00;0.00;0.62;;;;;18.00;5.50;;;;;;2280446;61;2045;-88
2022/10/28 07:08:28;346766.00;1.16;598.30;47853.00;0.16;83.47;;;;;18.10;5.50;;;;;;2280538;61;1023;-88
2022/10/28 07:10:56;80104.00;0.27;139.22;0.00;0.00;0.62;;;;;18.20;6.60;;;;;;2280533;61;1543;-87
2022/10/28 07:13:23;229883.00;0.77;397.35;0.00;0.00;0.62;;;;;18.50;6.20;;;;;;2280390;61;1555;-88
2022/10/28 07:15:54;268904.00;0.90;464.46;0.00;0.00;0.62;;;;;18.60;5.40;;;;;;2280470;61;1374;-87
2022/10/28 07:18:21;120039.00;0.40;208.15;0.00;0.00;0.62;;;;;18.70;5.20;;;;;;2280328;61;1186;-87
2022/10/28 07:20:48;424014.00;1.41;731.09;21203.00;0.07;37.35;;;;;18.60;5.10;;;;;;2280282;61;987;-89
2022/10/28 07:23:17;349662.00;1.17;603.28;15551.00;0.05;27.57;;;;;18.60;5.70;;;;;;2280439;61;1530;-88
2022/10/28 07:25:51;72243.00;0.24;125.64;0.00;0.00;0.62;;;;;18.60;5.10;;;;;;2280409;61;1921;-87
2022/10/28 07:28:17;158132.00;0.53;273.82;0.00;0.00;0.62;;;;;18.40;5.10;;;;;;2280410;61;1024;-87
2022/10/28 07:30:44;207219.00;0.69;358.35;0.00;0.00;0.62;;;;;17.80;7.60;;;;;;2280463;61;1677;-89
2022/10/28 07:33:11;192542.00;0.64;333.08;0.00;0.00;0.62;;;;;17.90;7.30;;;;;;2280481;61;1088;-87
2022/10/28 07:35:38;199682.00;0.67;345.38;0.00;0.00;0.62;;;;;17.80;7.00;;;;;;2280436;61;1349;-87
2022/10/28 07:38:05;150427.00;0.50;260.54;0.00;0.00;0.62;;;;;18.00;7.50;;;;;;2280485;61;1045;-87
2022/10/28 07:40:33;57855.00;0.19;100.77;0.00;0.00;0.62;;;;;17.90;8.10;;;;;;2280334;61;1052;-89
2022/10/28 07:43:00;96965.00;0.32;168.33;0.00;0.00;0.62;;;;;18.00;8.30;;;;;;2280461;61;1093;-88
2022/10/28 07:45:27;235219.00;0.78;406.53;0.00;0.00;0.62;;;;;18.20;7.50;;;;;;2280284;61;1361;-87
2022/10/28 07:47:54;70791.00;0.24;123.13;0.00;0.00;0.62;;;;;18.40;6.80;;;;;;2280417;61;2011;-86
2022/10/28 07:50:21;120222.00;0.40;208.47;0.00;0.00;0.62;;;;;18.60;6.00;;;;;;2280409;61;987;-88
2022/10/28 07:52:48;67086.00;0.22;116.72;0.00;0.00;0.62;;;;;18.80;5.30;;;;;;2280417;61;1123;-87
2022/10/28 07:55:15;268020.00;0.89;462.94;42094.00;0.14;73.51;;;;;18.90;5.80;;;;;;2280323;61;1316;-87
2022/10/28 07:57:43;261138.00;0.87;451.11;77875.00;0.26;135.37;;;;;19.00;5.40;;;;;;2280430;61;1177;-86
2022/10/28 08:00:11;226702.00;0.76;391.87;0.00;0.00;0.62;;;;;18.90;5.40;;;;;;2280406;61;1007;-88
2022/10/28 08:02:38;317698.00;1.06;548.34;0.00;0.00;0.62;;;;;18.90;5.40;;;;;;2280350;61;1585;-88
2022/10/28 08:05:06;326559.00;1.09;563.57;44293.00;0.15;77.32;;;;;19.20;5.60;;;;;;2280372;61;1426;-88
2022/10/28 08:07:33;99525.00;0.33;172.75;0.00;0.00;0.62;;;;;19.30;5.60;;;;;;2280389;61;1988;-87
2022/10/28 08:10:00;268634.00;0.90;464.00;23275.00;0.08;40.94;;;;;19.40;5.60;;;;;;2280422;61;1056;-88
2022/10/28 08:12:27;158251.00;0.53;274.03;0.00;0.00;0.62;;;;;19.40;5.00;;;;;;2280333;61;992;-88
2022/10/28 08:14:56;137953.00;0.46;239.04;0.00;0.00;0.62;;;;;19.40;5.70;;;;;;2280302;61;1017;-87
2022/10/28 08:17:23;255761.00;0.85;441.86;0.00;0.00;0.62;;;;;19.20;5.60;;;;;;2280275;61;1002;-88
2022/10/28 08:19:49;200638.00;0.67;347.02;0.00;0.00;0.62;;;;;18.70;7.30;;;;;;2280309;61;1341;-87
2022/10/28 08:22:16;474648.00;1.58;818.19;36475.00;0.12;63.79;;;;;18.50;8.30;;;;;;2280276;61;1066;-88
2022/10/28 08:24:43;51688.00;0.17;90.11;0.00;0.00;0.62;;;;;18.20;7.90;;;;;;2280307;61;1108;-88
2022/10/28 08:27:10;477514.00;1.59;823.12;51506.00;0.17;89.79;;;;;18.30;8.40;;;;;;2280243;61;2002;-87
2022/10/28 08:29:37;356376.00;1.19;614.82;15764.00;0.05;27.93;;;;;18.60;7.60;;;;;;2280232;61;1384;-88
2022/10/28 08:32:08;333011.00;1.11;574.66;52378.00;0.17;91.30;;;;;18.70;7.60;;;;;;2281107;61;919;-87
2022/10/28 08:34:35;773173.00;2.58;1334.38;170264.00;0.57;294.72;;;;;18.70;7.20;;;;;;2280983;61;1037;-88
2022/10/28 08:37:02;223954.00;0.75;387.15;55227.00;0.18;96.22;;;;;18.50;8.20;;;;;;2280908;61;1506;-87
2022/10/28 08:39:29;37636.00;0.13;65.80;0.00;0.00;0.62;;;;;18.50;7.90;;;;;;2280878;61;1075;-86
2022/10/28 08:42:07;223589.00;0.75;386.52;0.00;0.00;0.62;;;;;18.60;8.00;;;;;;2296923;39;3942;-87
2022/10/28 08:45:08;199409.00;0.66;344.91;0.00;0.00;0.62;;;;;19.00;7.10;;;;;;2281025;61;1017;-89
2022/10/28 08:47:48;64667.00;0.22;112.54;0.00;0.00;0.62;;;;;19.60;5.40;;;;;;2276752;61;1911;-87
2022/10/28 08:50:19;182301.00;0.61;315.45;0.00;0.00;0.62;;;;;20.00;3.80;;;;;;2276862;61;1061;-89
2022/10/28 08:52:54;297094.00;0.99;512.92;81329.00;0.27;141.33;;;;;19.90;3.90;;;;;;2276967;61;1454;-88
2022/10/28 08:55:26;335052.00;1.12;578.17;296.00;0.00;1.13;;;;;19.60;4.40;;;;;;2276832;61;1385;-88
2022/10/28 08:57:58;90442.00;0.30;157.07;0.00;0.00;0.62;;;;;19.60;4.90;;;;;;2276856;61;1101;-88
2022/10/28 09:00:27;186883.00;0.62;323.34;0.00;0.00;0.62;;;;;19.60;4.70;;;;;;2276797;61;982;-90
2022/10/28 09:05:25;1176236.00;3.92;2047.31;73059.00;0.24;127.05;;;;;19.80;4.40;;;;;;2282879;61;1391;-88
2022/10/28 09:07:54;183271.00;0.61;317.12;0.00;0.00;0.62;;;;;19.90;4.70;;;;;;2280836;61;1915;-88
2022/10/28 09:10:48;708121.00;2.36;1221.32;218765.00;0.73;378.22;;;;;19.90;4.60;;;;;;2280772;61;1560;-87
2022/10/28 09:13:26;305218.00;1.02;526.89;85876.00;0.29;149.19;;;;;20.10;4.70;;;;;;2280866;61;1029;-89
2022/10/28 09:16:03;151681.00;0.51;262.70;0.00;0.00;0.62;;;;;20.10;4.20;;;;;;2280864;61;1477;-87
2022/10/28 09:18:48;274791.00;0.92;474.58;0.00;0.00;0.62;;;;;20.30;4.00;;;;;;2280840;61;1006;-88
2022/10/28 09:21:24;182717.00;0.61;316.17;0.00;0.00;0.62;;;;;20.40;3.80;;;;;;2280783;61;2094;-89
2022/10/28 09:23:57;124386.00;0.41;215.65;0.00;0.00;0.62;;;;;20.70;3.80;;;;;;2280711;61;1025;-89
2022/10/28 09:26:39;251341.00;0.84;434.26;0.00;0.00;0.62;;;;;21.10;2.40;;;;;;2324380;39;3642;-89
2022/10/28 09:29:25;271078.00;0.90;468.20;0.00;0.00;0.62;;;;;21.40;2.40;;;;;;2284932;60;807;-89
2022/10/28 09:31:57;286986.00;0.96;495.55;0.00;0.00;0.62;;;;;21.60;2.20;;;;;;2284875;60;1783;-88
2022/10/28 09:34:33;92700.00;0.31;160.97;0.00;0.00;0.62;;;;;21.60;1.70;;;;;;2284834;60;2112;-88
2022/10/28 09:37:12;72068.00;0.24;125.33;0.00;0.00;0.62;;;;;21.70;1.70;;;;;;2284909;60;1537;-89
2022/10/28 09:42:16;773191.00;2.58;1334.41;0.00;0.00;0.62;;;;;21.50;2.10;;;;;;2278666;61;1399;-86
2022/10/28 09:44:49;130697.00;0.44;226.53;19037.00;0.06;33.60;;;;;21.30;1.40;;;;;;2276773;61;1125;-88
2022/10/28 09:47:20;187756.00;0.63;324.84;0.00;0.00;0.62;;;;;21.30;2.60;;;;;;2276641;61;2024;-87
2022/10/28 09:49:49;309864.00;1.03;534.88;72287.00;0.24;125.71;;;;;21.50;2.60;;;;;;2276742;61;1938;-90
2022/10/28 09:52:23;284721.00;0.95;491.65;23979.00;0.08;42.16;;;;;21.70;1.90;;;;;;2276684;61;1666;-89
2022/10/28 09:54:53;142439.00;0.47;246.78;16382.00;0.05;29.00;;;;;21.90;1.70;;;;;;2276671;61;1078;-90
2022/10/28 09:57:22;331337.00;1.10;571.78;6344.00;0.02;11.61;;;;;22.00;1.80;;;;;;2276474;61;1297;-88
2022/10/28 09:59:49;271242.00;0.90;468.48;0.00;0.00;0.62;;;;;22.10;1.00;;;;;;2276650;61;1081;-88
2022/10/28 10:02:28;587282.00;1.96;1012.27;147411.00;0.49;255.35;;;;;22.30;1.00;;;;;;2276659;61;1016;-88